< Typhoon 201806 2018 Season Typhoon 201808 >
Typhoon 201807 (PRAPIROON)
General InformationTrack Information on Google MapsDetailed Wind InformationForecast History on Google MapsAccess Analytics MapList of All Images || NewsDisaster Info.WeblogTrackbackTyphoon FrontTwiphoonTyphoon Now!Typhoon ImaginationJMA Disaster Info. XMLResourceGoogle EarthGE AnimationAtom FeedGeoJSON
Detalied Best Track (Time Zone = UTC)
Year Month Day Hour Lat. Long. Pressure (hPa) Wind (kt) Class Image Chart
2018 6 28 00 19.8 132.8 1006 0 2 Image Chart
2018 6 28 06 19.8 132.2 1004 0 2 Image Chart
2018 6 28 12 19.8 131.4 1004 0 2 Image Chart
2018 6 28 18 19.8 130.8 1002 0 2 Image Chart
2018 6 29 00 19.8 130.3 998 35 3 Image Chart
2018 6 29 06 19.8 129.9 998 35 3 Image Chart
2018 6 29 12 19.8 129.8 996 40 3 Image Chart
2018 6 29 18 19.9 129.7 996 40 3 Image Chart
2018 6 30 00 20.4 129.6 992 45 3 Image Chart
2018 6 30 06 21.0 129.4 992 45 3 Image Chart
2018 6 30 12 21.8 128.8 992 45 3 Image Chart
2018 6 30 18 22.9 128.2 992 45 3 Image Chart
2018 7 1 00 23.6 127.7 985 50 4 Image Chart
2018 7 1 03 23.9 127.3 985 50 4 Image Chart
2018 7 1 06 24.5 127.2 980 55 4 Image Chart
2018 7 1 09 25.0 127.0 980 55 4 Image Chart
2018 7 1 12 25.4 126.9 980 55 4 Image Chart
2018 7 1 15 25.8 126.8 980 55 4 Image Chart
2018 7 1 18 26.1 126.8 970 60 4 Image Chart
2018 7 1 21 26.7 126.8 970 60 4 Image Chart
2018 7 2 00 27.2 127.0 965 65 5 Image Chart
2018 7 2 03 27.7 127.1 965 65 5 Image Chart
2018 7 2 06 28.2 127.4 965 65 5 Image Chart
2018 7 2 09 28.8 127.7 965 65 5 Image Chart
2018 7 2 12 29.5 128.1 965 65 5 Image Chart
2018 7 2 15 30.1 127.9 965 65 5 Image Chart
2018 7 2 18 30.7 127.8 960 65 5 Image Chart
2018 7 2 21 31.4 127.9 960 65 5 Image Chart
2018 7 3 00 32.0 128.2 965 60 4 Image Chart
2018 7 3 03 32.7 128.6 965 60 4 Image Chart
2018 7 3 06 33.2 128.9 965 60 4 Image Chart
2018 7 3 09 33.9 129.3 970 60 4 Image Chart
2018 7 3 12 34.4 129.6 975 55 4 Image Chart
2018 7 3 15 35.0 130.2 975 55 4 Image Chart
2018 7 3 18 35.6 130.8 980 50 4 Image Chart
2018 7 4 00 37.3 132.5 985 45 3 Image Chart
2018 7 4 06 39.6 134.8 986 0 6 Image Chart
2018 7 4 12 40.6 136.6 986 0 6 Image Chart
2018 7 4 18 40.9 138.3 986 0 6 Image Chart
2018 7 5 00 41.3 139.5 992 0 6 Image Chart
2018 7 5 06 41.7 140.2 1002 0 6 Image Chart
Japan Meteorological Agency Best Track Data | Correction Date : 2018-08-27
< Typhoon 201806 2018 Season Typhoon 201808 >

Help